createdAt,value
2019-04-06T00:00:42.455Z,32.57
2019-04-06T00:03:14.540Z,32.70
2019-04-06T00:05:46.621Z,32.50
2019-04-06T00:08:18.619Z,31.87
2019-04-06T00:10:50.588Z,32.70
2019-04-06T00:13:22.649Z,32.03
2019-04-06T00:15:54.694Z,31.87
2019-04-06T00:18:26.786Z,32.77
2019-04-06T00:20:58.762Z,31.80
2019-04-06T00:23:31.149Z,32.83
2019-04-06T00:26:03.206Z,33.63
2019-04-06T00:28:35.283Z,33.67
2019-04-06T00:31:26.745Z,33.93
2019-04-06T00:33:59.027Z,34.60
2019-04-06T00:36:31.371Z,34.67
2019-04-06T00:39:05.087Z,35.23
2019-04-06T00:41:38.905Z,35.33
2019-04-06T00:44:11.282Z,37.00
2019-04-06T00:46:45.150Z,35.73
2019-04-06T00:49:17.198Z,36.67
2019-04-06T00:51:49.210Z,36.67
2019-04-06T00:54:21.193Z,36.53
2019-04-06T00:56:53.186Z,37.03
2019-04-06T00:59:25.158Z,36.70
2019-04-06T01:01:57.171Z,37.23
2019-04-06T01:04:29.145Z,36.10
2019-04-06T01:07:01.118Z,36.77
2019-04-06T01:09:33.105Z,36.70
2019-04-06T01:12:05.055Z,36.40
2019-04-06T01:14:37.082Z,36.67
2019-04-06T01:17:09.991Z,36.93
2019-04-06T01:19:41.941Z,37.63
2019-04-06T01:22:14.024Z,35.53
2019-04-06T01:24:45.973Z,37.77
2019-04-06T01:27:18.147Z,36.23
2019-04-06T01:29:50.425Z,37.63
2019-04-06T01:32:22.666Z,36.63
2019-04-06T01:34:54.629Z,36.93
2019-04-06T01:37:26.624Z,36.27
2019-04-06T01:39:58.615Z,37.10
2019-04-06T01:42:30.607Z,36.33
2019-04-06T01:45:02.565Z,36.60
2019-04-06T01:47:34.764Z,35.57
2019-04-06T01:50:07.501Z,35.57
2019-04-06T01:52:39.448Z,36.43
2019-04-06T01:55:11.626Z,36.93
2019-04-06T01:57:43.621Z,36.07
2019-04-06T02:00:16.107Z,36.20
2019-04-06T02:02:50.536Z,34.67
2019-04-06T02:05:22.498Z,34.97
2019-04-06T02:07:54.590Z,35.57
2019-04-06T02:10:26.641Z,33.90
2019-04-06T02:12:58.654Z,33.70
2019-04-06T02:15:31.029Z,34.47
2019-04-06T02:18:03.115Z,34.33
2019-04-06T02:20:35.471Z,33.83
2019-04-06T02:23:07.806Z,34.53
2019-04-06T02:25:40.346Z,34.20
2019-04-06T02:28:12.390Z,33.07
2019-04-06T02:30:55.025Z,34.50
2019-04-06T02:33:39.385Z,33.67
2019-04-06T02:36:45.837Z,33.90
2019-04-06T02:39:42.769Z,33.87
2019-04-06T02:42:21.221Z,33.57
2019-04-06T02:44:53.331Z,31.87
2019-04-06T02:47:25.427Z,34.23
2019-04-06T02:49:57.537Z,32.53
2019-04-06T02:52:29.752Z,31.90
2019-04-06T02:55:01.853Z,28.33
2019-04-06T02:57:33.832Z,32.40
2019-04-06T03:00:07.848Z,30.60
2019-04-06T03:02:40.422Z,30.63
2019-04-06T03:05:12.578Z,29.90
2019-04-06T03:07:44.627Z,31.00
2019-04-06T03:10:16.625Z,30.50
2019-04-06T03:12:48.732Z,31.97
2019-04-06T03:15:20.908Z,31.53
2019-04-06T03:17:52.953Z,31.37
2019-04-06T03:20:25.050Z,29.23
2019-04-06T03:22:57.001Z,29.73
2019-04-06T03:25:29.175Z,30.37
2019-04-06T03:28:01.342Z,31.10
2019-04-06T03:30:33.315Z,30.70
2019-04-06T03:33:05.282Z,30.00
2019-04-06T03:35:37.746Z,29.80
2019-04-06T03:38:10.515Z,32.27
2019-04-06T03:40:42.581Z,30.37
2019-04-06T03:43:14.617Z,31.17
2019-04-06T03:45:46.592Z,29.20
2019-04-06T03:48:18.574Z,31.27
2019-04-06T03:50:50.665Z,32.27
2019-04-06T03:53:22.801Z,30.60
2019-04-06T03:55:54.910Z,32.37
2019-04-06T03:58:26.979Z,32.17
2019-04-06T04:00:58.986Z,31.50
2019-04-06T04:03:31.083Z,30.63
2019-04-06T04:06:03.210Z,30.07
2019-04-06T04:08:35.199Z,30.83
2019-04-06T04:11:07.143Z,31.47
2019-04-06T04:13:39.135Z,32.40
2019-04-06T04:16:11.245Z,32.60
2019-04-06T04:18:43.233Z,35.03
2019-04-06T04:21:15.175Z,34.43
2019-04-06T04:23:47.215Z,33.00
2019-04-06T04:26:19.194Z,31.23
2019-04-06T04:28:51.260Z,30.97
2019-04-06T04:31:23.223Z,30.90
2019-04-06T04:33:55.312Z,30.77
2019-04-06T04:36:27.295Z,29.90
2019-04-06T04:38:59.300Z,29.97
2019-04-06T04:41:31.319Z,29.17
2019-04-06T04:44:03.369Z,29.93
2019-04-06T04:46:35.319Z,30.40
2019-04-06T04:49:07.283Z,30.53
2019-04-06T04:51:39.294Z,29.63
2019-04-06T04:54:12.246Z,28.77
2019-04-06T04:56:44.188Z,28.37
2019-04-06T04:59:16.167Z,29.57
2019-04-06T05:01:48.218Z,27.43
2019-04-06T05:04:20.609Z,27.00
2019-04-06T05:06:52.871Z,27.47
2019-04-06T05:09:24.956Z,26.43
2019-04-06T05:11:56.965Z,26.40
2019-04-06T05:15:00.827Z,26.47
2019-04-06T05:17:32.801Z,26.70
2019-04-06T05:20:05.622Z,27.57
2019-04-06T05:22:37.753Z,27.40
2019-04-06T05:25:10.105Z,27.67
2019-04-06T05:27:51.268Z,29.00
2019-04-06T05:30:16.461Z,27.57
2019-04-06T05:32:48.494Z,27.57
2019-04-06T05:35:20.755Z,25.93
2019-04-06T05:37:52.832Z,25.83
2019-04-06T05:40:24.972Z,25.83
2019-04-06T05:42:57.004Z,25.70
2019-04-06T05:45:29.197Z,27.63
2019-04-06T05:48:01.434Z,27.80
2019-04-06T05:50:33.405Z,27.47
2019-04-06T05:53:05.708Z,28.70
2019-04-06T05:55:37.654Z,28.70
2019-04-06T05:58:10.848Z,27.30
2019-04-06T06:00:43.411Z,28.13
2019-04-06T06:03:15.590Z,24.43
2019-04-06T06:05:47.661Z,28.00
2019-04-06T06:08:20.306Z,26.30
2019-04-06T06:10:52.487Z,26.90
2019-04-06T06:13:24.483Z,27.63
2019-04-06T06:15:56.513Z,28.17
2019-04-06T06:18:28.546Z,27.90
2019-04-06T06:21:01.062Z,27.67
2019-04-06T06:23:33.193Z,29.00
2019-04-06T06:26:05.438Z,29.70
2019-04-06T06:28:37.667Z,30.37
2019-04-06T06:31:10.473Z,31.10
2019-04-06T06:33:42.439Z,29.20
2019-04-06T06:36:14.533Z,30.60
2019-04-06T06:38:46.625Z,29.83
2019-04-06T06:41:18.734Z,30.27
2019-04-06T06:43:50.761Z,30.17
2019-04-06T06:46:22.865Z,31.83
2019-04-06T06:48:54.943Z,28.27
2019-04-06T06:51:27.031Z,27.37
2019-04-06T06:54:00.817Z,24.20
2019-04-06T06:56:32.858Z,27.83
2019-04-06T06:59:04.953Z,28.30
2019-04-06T07:01:37.036Z,27.23
2019-04-06T07:04:09.311Z,29.77
2019-04-06T07:06:43.916Z,29.20
2019-04-06T07:09:15.947Z,65.33
2019-04-06T07:11:48.543Z,32.37
2019-04-06T07:14:20.512Z,26.77
2019-04-06T07:16:52.580Z,29.73
2019-04-06T07:19:24.537Z,34.20
2019-04-06T07:21:56.557Z,31.83
2019-04-06T07:24:28.511Z,31.23
2019-04-06T07:27:00.550Z,31.57
2019-04-06T07:29:32.556Z,31.27
2019-04-06T07:32:04.536Z,29.70
2019-04-06T07:34:36.546Z,28.63
2019-04-06T07:37:08.799Z,30.60
2019-04-06T07:39:41.196Z,31.80
2019-04-06T07:42:13.179Z,31.80
2019-04-06T07:44:45.213Z,27.93
2019-04-06T07:47:17.227Z,28.70
2019-04-06T07:49:49.167Z,29.50
2019-04-06T07:52:21.338Z,30.30
2019-04-06T07:54:53.354Z,29.13
2019-04-06T07:57:25.445Z,27.83
2019-04-06T07:59:57.451Z,29.07
2019-04-06T08:02:29.499Z,29.10
2019-04-06T08:05:01.519Z,29.03
2019-04-06T08:07:33.470Z,27.47
2019-04-06T08:10:06.064Z,29.43
2019-04-06T08:12:38.089Z,29.90
2019-04-06T08:15:11.052Z,27.40
2019-04-06T08:17:44.090Z,25.50
2019-04-06T08:20:17.595Z,26.67
2019-04-06T08:22:49.909Z,27.63
2019-04-06T08:25:21.918Z,27.60
2019-04-06T08:27:54.063Z,29.60
2019-04-06T08:30:26.276Z,28.23
2019-04-06T08:32:58.715Z,27.77
2019-04-06T08:35:31.089Z,26.43
2019-04-06T08:38:03.179Z,27.80
2019-04-06T08:40:35.416Z,27.87
2019-04-06T08:43:07.516Z,28.00
2019-04-06T08:45:39.554Z,27.73
2019-04-06T08:48:12.518Z,27.47
2019-04-06T08:50:44.771Z,27.87
2019-04-06T08:53:16.854Z,26.23
2019-04-06T08:55:48.942Z,25.33
2019-04-06T08:58:21.503Z,25.40
2019-04-06T09:00:53.705Z,25.40
2019-04-06T09:03:25.894Z,23.80
2019-04-06T09:05:57.945Z,24.70
2019-04-06T09:08:30.530Z,26.07
2019-04-06T09:11:02.656Z,23.17
2019-04-06T09:13:34.665Z,24.03
2019-04-06T09:16:06.770Z,26.10
2019-04-06T09:18:38.762Z,25.80
2019-04-06T09:21:11.165Z,21.60
2019-04-06T09:23:43.255Z,21.77
2019-04-06T09:26:15.297Z,23.40
2019-04-06T09:28:47.399Z,23.05
2019-04-06T09:31:19.481Z,19.87
2019-04-06T09:33:51.457Z,18.32
2019-04-06T09:36:23.592Z,19.98
2019-04-06T09:38:56.313Z,17.45
2019-04-06T09:41:29.916Z,17.85
2019-04-06T09:44:02.006Z,16.20
2019-04-06T09:46:41.865Z,16.52
2019-04-06T09:49:32.686Z,16.20
2019-04-06T09:52:22.401Z,18.85
2019-04-06T09:55:13.235Z,22.60
2019-04-06T09:57:58.615Z,22.98
2019-04-06T10:00:43.306Z,22.40
2019-04-06T10:03:34.399Z,20.88
2019-04-06T10:06:16.792Z,22.80
2019-04-06T10:09:26.162Z,27.67
2019-04-06T10:12:17.829Z,22.45
2019-04-06T10:15:03.565Z,22.50
2019-04-06T10:17:54.763Z,20.43
2019-04-06T10:20:53.427Z,20.27
2019-04-06T10:24:02.445Z,22.98
2019-04-06T10:26:56.253Z,20.75
2019-04-06T10:29:58.765Z,21.25
2019-04-06T10:32:37.159Z,19.70
2019-04-06T10:35:21.034Z,18.57
2019-04-06T10:38:14.075Z,20.10
2019-04-06T10:41:08.133Z,17.65
2019-04-06T10:44:08.650Z,16.70
2019-04-06T10:46:58.635Z,18.90
2019-04-06T10:50:07.608Z,16.87
2019-04-06T10:53:02.192Z,22.15
2019-04-06T10:55:57.595Z,19.87
2019-04-06T10:58:54.923Z,20.12
2019-04-06T11:01:49.058Z,20.72
2019-04-06T11:04:34.970Z,20.23
2019-04-06T11:07:24.617Z,19.75
2019-04-06T11:10:24.387Z,20.43
2019-04-06T11:13:13.726Z,19.57
2019-04-06T11:15:53.586Z,24.90
2019-04-06T11:18:42.980Z,26.97
2019-04-06T11:21:33.814Z,29.00
2019-04-06T11:24:23.489Z,26.63
2019-04-06T11:27:11.896Z,22.67
2019-04-06T11:30:13.112Z,22.35
2019-04-06T11:33:07.174Z,24.25
2019-04-06T11:35:54.098Z,34.48
2019-04-06T11:38:45.081Z,26.77
2019-04-06T11:41:28.153Z,30.32
2019-04-06T11:44:07.793Z,26.97
2019-04-06T11:46:57.444Z,25.27
2019-04-06T11:49:44.349Z,24.93
2019-04-06T11:52:34.034Z,25.40
2019-04-06T11:55:18.901Z,28.70
2019-04-06T11:58:10.325Z,29.47
2019-04-06T12:01:03.929Z,26.40
2019-04-06T12:03:54.757Z,24.53
2019-04-06T12:06:37.191Z,28.30
2019-04-06T12:09:28.243Z,39.17
2019-04-06T12:12:18.555Z,35.40
2019-04-06T12:15:04.930Z,29.47
2019-04-06T12:17:45.548Z,30.87
2019-04-06T12:20:34.596Z,39.30
2019-04-06T12:23:24.079Z,29.57
2019-04-06T12:26:09.445Z,22.87
2019-04-06T12:28:50.402Z,23.73
2019-04-06T12:31:44.692Z,23.23
2019-04-06T12:34:27.374Z,23.17
2019-04-06T12:37:24.771Z,22.37
2019-04-06T12:40:15.323Z,21.97
2019-04-06T12:43:18.149Z,21.37
2019-04-06T12:46:12.478Z,20.23
2019-04-06T12:49:03.389Z,22.57
2019-04-06T12:51:57.317Z,28.90
2019-04-06T12:54:57.845Z,33.30
2019-04-06T12:57:49.573Z,45.13
2019-04-06T13:00:49.303Z,42.10
2019-04-06T13:03:31.343Z,44.63
2019-04-06T13:06:37.849Z,48.80
2019-04-06T13:09:44.504Z,53.93
2019-04-06T13:12:44.537Z,51.33
2019-04-06T13:15:38.689Z,45.90
2019-04-06T13:18:27.058Z,46.97
2019-04-06T13:21:25.265Z,66.43
2019-04-06T13:24:08.031Z,86.00
2019-04-06T13:26:56.755Z,54.37
2019-04-06T13:29:42.302Z,46.60
2019-04-06T13:32:36.521Z,48.07
2019-04-06T13:35:14.051Z,49.30
2019-04-06T13:37:59.743Z,52.87
2019-04-06T13:40:50.531Z,50.17
2019-04-06T13:43:41.510Z,57.60
2019-04-06T13:46:28.594Z,72.67
2019-04-06T13:49:26.541Z,62.60
2019-04-06T13:52:17.382Z,56.23
2019-04-06T13:55:08.503Z,54.53
2019-04-06T13:58:02.903Z,54.37
2019-04-06T14:01:13.771Z,55.07
2019-04-06T14:03:54.138Z,53.83
2019-04-06T14:06:51.364Z,58.07
2019-04-06T14:09:48.292Z,72.33
2019-04-06T14:12:38.361Z,63.13
2019-04-06T14:15:47.947Z,59.50
2019-04-06T14:18:41.919Z,53.30
2019-04-06T14:21:31.402Z,56.17
2019-04-06T14:24:28.491Z,45.60
2019-04-06T14:27:20.010Z,34.13
2019-04-06T14:30:22.797Z,45.70
2019-04-06T14:33:12.228Z,37.40
2019-04-06T14:36:04.489Z,22.43
2019-04-06T14:38:57.958Z,23.17
2019-04-06T14:41:47.742Z,24.73
2019-04-06T14:44:31.842Z,24.80
2019-04-06T14:47:31.923Z,26.00
2019-04-06T14:50:24.226Z,24.20
2019-04-06T14:53:18.234Z,47.17
2019-04-06T14:56:21.493Z,27.27
2019-04-06T14:59:24.707Z,29.60
2019-04-06T15:02:14.176Z,26.20
2019-04-06T15:05:14.430Z,26.33
2019-04-06T15:08:05.629Z,24.23
2019-04-06T15:11:05.379Z,27.23
2019-04-06T15:13:56.318Z,23.30
2019-04-06T15:16:47.559Z,25.30
2019-04-06T15:19:41.759Z,28.73
2019-04-06T15:22:31.526Z,28.50
2019-04-06T15:25:12.553Z,31.13
2019-04-06T15:28:03.377Z,30.57
2019-04-06T15:30:42.518Z,31.40
2019-04-06T15:33:26.904Z,31.53
2019-04-06T15:36:24.396Z,30.40
2019-04-06T15:39:15.281Z,36.80
2019-04-06T15:42:15.153Z,37.67
2019-04-06T15:45:12.315Z,46.13
2019-04-06T15:48:15.525Z,48.57
2019-04-06T15:51:09.569Z,57.60
2019-04-06T15:54:06.548Z,52.37
2019-04-06T15:56:46.303Z,51.37
2019-04-06T15:59:24.631Z,59.40
2019-04-06T16:02:33.981Z,57.63
2019-04-06T16:05:16.883Z,58.20
2019-04-06T16:07:59.549Z,60.77
2019-04-06T16:10:50.359Z,56.60
2019-04-06T16:13:56.900Z,62.37
2019-04-06T16:16:50.818Z,62.93
2019-04-06T16:19:50.857Z,67.53
2019-04-06T16:22:38.376Z,65.20
2019-04-06T16:25:36.225Z,75.93
2019-04-06T16:28:45.481Z,62.73
2019-04-06T16:31:36.509Z,66.93
2019-04-06T16:34:30.048Z,63.57
2019-04-06T16:37:18.527Z,101.47
2019-04-06T16:40:03.219Z,78.50
2019-04-06T16:42:56.881Z,86.20
2019-04-06T16:45:54.981Z,80.77
2019-04-06T16:48:42.510Z,88.37
2019-04-06T16:51:31.805Z,94.57
2019-04-06T16:54:23.253Z,91.60
2019-04-06T16:57:12.935Z,77.93
2019-04-06T16:59:54.249Z,90.70
2019-04-06T17:02:44.777Z,81.93
2019-04-06T17:05:36.172Z,74.70
2019-04-06T17:08:27.107Z,76.60
2019-04-06T17:11:26.947Z,90.10
2019-04-06T17:14:11.538Z,74.97
2019-04-06T17:17:05.167Z,83.57
2019-04-06T17:19:56.243Z,78.53
2019-04-06T17:22:37.176Z,89.37
2019-04-06T17:25:28.229Z,95.77
2019-04-06T17:28:14.672Z,72.97
2019-04-06T17:31:11.807Z,74.30
2019-04-06T17:33:51.808Z,70.20
2019-04-06T17:36:42.871Z,71.03
2019-04-06T17:39:37.026Z,73.63
2019-04-06T17:42:18.923Z,66.27
2019-04-06T17:45:08.877Z,79.70
2019-04-06T17:47:58.952Z,66.00
2019-04-06T17:50:42.593Z,60.50
2019-04-06T17:53:41.158Z,58.03
2019-04-06T17:56:31.975Z,61.23
2019-04-06T17:59:21.547Z,62.17
2019-04-06T18:02:21.444Z,63.07
2019-04-06T18:05:15.244Z,56.63
2019-04-06T18:08:09.096Z,57.10
2019-04-06T18:10:57.171Z,67.20
2019-04-06T18:13:49.825Z,56.23
2019-04-06T18:16:25.448Z,58.50
2019-04-06T18:18:57.740Z,57.40
2019-04-06T18:21:30.270Z,53.20
2019-04-06T18:24:02.285Z,54.87
2019-04-06T18:26:34.310Z,54.60
2019-04-06T18:29:06.467Z,50.77
2019-04-06T18:31:57.525Z,54.13
2019-04-06T18:34:29.596Z,58.03
2019-04-06T18:37:20.522Z,57.93
2019-04-06T18:39:53.754Z,54.23
2019-04-06T18:42:26.106Z,57.67
2019-04-06T18:44:58.119Z,54.30
2019-04-06T18:47:30.476Z,51.57
2019-04-06T18:50:02.711Z,56.53
2019-04-06T18:52:35.022Z,59.53
2019-04-06T18:55:07.850Z,51.73
2019-04-06T18:57:40.277Z,40.27
2019-04-06T19:00:13.422Z,46.73
2019-04-06T19:02:46.169Z,47.20
2019-04-06T19:05:18.638Z,52.13
2019-04-06T19:07:50.906Z,39.73
2019-04-06T19:10:23.232Z,42.63
2019-04-06T19:12:55.398Z,30.20
2019-04-06T19:15:27.536Z,41.57
2019-04-06T19:18:00.156Z,38.53
2019-04-06T19:20:32.338Z,32.97
2019-04-06T19:23:04.753Z,43.00
2019-04-06T19:25:37.889Z,48.17
2019-04-06T19:28:10.941Z,44.03
2019-04-06T19:30:44.427Z,39.50
2019-04-06T19:33:23.338Z,46.77
2019-04-06T19:35:50.675Z,42.53
2019-04-06T19:38:22.732Z,43.17
2019-04-06T19:40:55.209Z,45.27
2019-04-06T19:43:27.768Z,107.43
2019-04-06T19:46:00.021Z,50.63
2019-04-06T19:48:33.872Z,56.23
2019-04-06T19:51:06.186Z,47.33
2019-04-06T19:53:39.063Z,175.17
2019-04-06T19:56:11.225Z,60.60
2019-04-06T19:58:43.811Z,86.67
2019-04-06T20:01:15.989Z,72.20
2019-04-06T20:03:48.215Z,51.57
2019-04-06T20:06:20.562Z,45.47
2019-04-06T20:08:52.854Z,40.87
2019-04-06T20:11:25.555Z,61.73
2019-04-06T20:13:57.643Z,49.63
2019-04-06T20:16:29.613Z,47.67
2019-04-06T20:19:01.644Z,38.30
2019-04-06T20:21:34.112Z,36.17
2019-04-06T20:24:06.846Z,31.70
2019-04-06T20:26:39.886Z,34.07
2019-04-06T20:29:12.683Z,42.10
2019-04-06T20:31:44.897Z,33.43
2019-04-06T20:34:16.865Z,35.20
2019-04-06T20:36:49.065Z,32.23
2019-04-06T20:39:21.102Z,32.90
2019-04-06T20:41:53.206Z,36.63
2019-04-06T20:44:25.178Z,36.00
2019-04-06T20:46:57.161Z,34.57
2019-04-06T20:49:29.116Z,33.70
2019-04-06T20:52:01.167Z,35.23
2019-04-06T20:54:33.239Z,31.67
2019-04-06T20:57:05.402Z,34.53
2019-04-06T20:59:37.516Z,32.90
2019-04-06T21:02:09.450Z,36.10
2019-04-06T21:04:41.422Z,31.03
2019-04-06T21:07:13.413Z,29.37
2019-04-06T21:09:45.399Z,29.13
2019-04-06T21:12:18.184Z,29.03
2019-04-06T21:14:52.814Z,30.10
2019-04-06T21:17:24.119Z,28.60
2019-04-06T21:19:56.134Z,28.83
2019-04-06T21:22:28.083Z,29.50
2019-04-06T21:25:00.572Z,32.23
2019-04-06T21:27:32.638Z,27.80
2019-04-06T21:30:05.452Z,29.60
2019-04-06T21:32:37.420Z,27.03
2019-04-06T21:35:09.497Z,32.77
2019-04-06T21:37:41.596Z,30.40
2019-04-06T21:40:15.902Z,30.63
2019-04-06T21:42:48.445Z,33.40
2019-04-06T21:45:20.730Z,42.50
2019-04-06T21:47:53.073Z,40.77
2019-04-06T21:50:25.640Z,35.53
2019-04-06T21:52:57.709Z,40.43
2019-04-06T21:55:30.058Z,42.43
2019-04-06T21:58:03.241Z,38.40
2019-04-06T22:00:52.419Z,35.33
2019-04-06T22:03:24.453Z,37.10
2019-04-06T22:05:56.757Z,39.50
2019-04-06T22:08:29.479Z,38.30
2019-04-06T22:11:01.822Z,38.90
2019-04-06T22:13:33.884Z,43.30
2019-04-06T22:16:06.287Z,42.50
2019-04-06T22:18:38.372Z,41.40
2019-04-06T22:21:10.618Z,39.83
2019-04-06T22:23:44.946Z,44.33
2019-04-06T22:26:17.074Z,41.03
2019-04-06T22:28:49.232Z,42.23
2019-04-06T22:31:21.363Z,45.43
2019-04-06T22:33:55.626Z,42.60
2019-04-06T22:36:27.716Z,43.90
2019-04-06T22:39:00.629Z,42.23
2019-04-06T22:41:32.773Z,48.77
2019-04-06T22:44:05.647Z,49.37
2019-04-06T22:46:38.087Z,48.20
2019-04-06T22:49:10.343Z,51.37
2019-04-06T22:51:43.497Z,47.57
2019-04-06T22:54:15.507Z,44.83
2019-04-06T22:56:47.447Z,47.53
2019-04-06T22:59:19.509Z,44.47
2019-04-06T23:01:51.708Z,40.63
2019-04-06T23:04:47.710Z,38.57
2019-04-06T23:07:16.782Z,41.03
2019-04-06T23:09:49.368Z,38.63
2019-04-06T23:12:21.337Z,41.57
2019-04-06T23:14:53.792Z,41.07
2019-04-06T23:17:26.098Z,40.03
2019-04-06T23:19:58.163Z,38.77
2019-04-06T23:22:30.392Z,39.67
2019-04-06T23:25:02.762Z,35.53
2019-04-06T23:27:35.354Z,38.37
2019-04-06T23:30:08.820Z,37.37
2019-04-06T23:32:41.154Z,39.87
2019-04-06T23:35:13.298Z,43.27
2019-04-06T23:37:45.839Z,43.80
2019-04-06T23:40:17.917Z,41.93
2019-04-06T23:42:50.479Z,45.03
2019-04-06T23:45:23.427Z,52.27
2019-04-06T23:47:55.900Z,55.03
2019-04-06T23:50:28.201Z,54.73
2019-04-06T23:53:00.722Z,55.43
2019-04-06T23:55:35.496Z,54.03
2019-04-06T23:58:07.538Z,58.17
